sensor_id;sensor_type;location;lat;lon;timestamp;pressure;altitude;pressure_sealevel;temperature;humidity
49947;BME280;35839;48.662;13.300;2022-08-19T05:05:12;96890.34;;;19.37;100.00
49947;BME280;35839;48.662;13.300;2022-08-19T05:07:37;96883.53;;;19.23;100.00
49947;BME280;35839;48.662;13.300;2022-08-19T05:10:05;96884.41;;;19.17;100.00
49947;BME280;35839;48.662;13.300;2022-08-19T05:12:31;96888.19;;;19.03;100.00
49947;BME280;35839;48.662;13.300;2022-08-19T05:14:57;96892.03;;;19.07;100.00
49947;BME280;35839;48.662;13.300;2022-08-19T05:17:23;96888.41;;;19.01;100.00
49947;BME280;35839;48.662;13.300;2022-08-19T05:19:49;96891.44;;;19.05;100.00
49947;BME280;35839;48.662;13.300;2022-08-19T05:22:32;96891.91;;;18.95;100.00
49947;BME280;35839;48.662;13.300;2022-08-19T05:25:02;96892.16;;;19.19;100.00
49947;BME280;35839;48.662;13.300;2022-08-19T05:27:28;96892.22;;;19.12;100.00
49947;BME280;35839;48.662;13.300;2022-08-19T05:29:53;96894.63;;;19.13;100.00
49947;BME280;35839;48.662;13.300;2022-08-19T05:32:19;96897.88;;;19.15;100.00
49947;BME280;35839;48.662;13.300;2022-08-19T05:34:44;96888.91;;;19.16;100.00
49947;BME280;35839;48.662;13.300;2022-08-19T05:37:10;96883.53;;;19.23;100.00
49947;BME280;35839;48.662;13.300;2022-08-19T05:39:37;96877.00;;;19.26;100.00
49947;BME280;35839;48.662;13.300;2022-08-19T05:42:05;96862.41;;;19.10;100.00
49947;BME280;35839;48.662;13.300;2022-08-19T05:44:33;96859.91;;;19.15;100.00
49947;BME280;35839;48.662;13.300;2022-08-19T05:47:01;96852.00;;;19.33;100.00
49947;BME280;35839;48.662;13.300;2022-08-19T05:49:28;96841.91;;;19.42;100.00
49947;BME280;35839;48.662;13.300;2022-08-19T05:51:55;96833.88;;;19.30;100.00
49947;BME280;35839;48.662;13.300;2022-08-19T05:54:21;96829.63;;;19.23;100.00
49947;BME280;35839;48.662;13.300;2022-08-19T05:56:48;96825.56;;;19.20;100.00
49947;BME280;35839;48.662;13.300;2022-08-19T05:59:15;96807.69;;;19.09;100.00
49947;BME280;35839;48.662;13.300;2022-08-19T06:01:43;96800.06;;;19.19;100.00
49947;BME280;35839;48.662;13.300;2022-08-19T06:04:09;96792.97;;;19.13;100.00
49947;BME280;35839;48.662;13.300;2022-08-19T06:06:35;96794.63;;;19.14;100.00
49947;BME280;35839;48.662;13.300;2022-08-19T06:09:03;96788.22;;;19.22;100.00
49947;BME280;35839;48.662;13.300;2022-08-19T06:11:47;96787.81;;;19.18;100.00
49947;BME280;35839;48.662;13.300;2022-08-19T06:14:16;96774.13;;;19.21;100.00
49947;BME280;35839;48.662;13.300;2022-08-19T06:16:43;96759.81;;;19.22;100.00
49947;BME280;35839;48.662;13.300;2022-08-19T06:19:14;96761.00;;;19.26;100.00
49947;BME280;35839;48.662;13.300;2022-08-19T06:21:43;96779.13;;;19.29;100.00
49947;BME280;35839;48.662;13.300;2022-08-19T06:24:11;96778.28;;;19.35;100.00
49947;BME280;35839;48.662;13.300;2022-08-19T06:26:39;96771.91;;;19.55;100.00
49947;BME280;35839;48.662;13.300;2022-08-19T06:29:06;96767.41;;;19.55;100.00
49947;BME280;35839;48.662;13.300;2022-08-19T06:31:33;96769.72;;;19.52;100.00
49947;BME280;35839;48.662;13.300;2022-08-19T06:34:04;96775.63;;;19.54;100.00
49947;BME280;35839;48.662;13.300;2022-08-19T06:36:31;96795.81;;;19.55;100.00
49947;BME280;35839;48.662;13.300;2022-08-19T06:39:03;96808.44;;;19.59;100.00
49947;BME280;35839;48.662;13.300;2022-08-19T06:41:29;96819.88;;;19.97;100.00
49947;BME280;35839;48.662;13.300;2022-08-19T06:43:56;96823.59;;;20.26;100.00
49947;BME280;35839;48.662;13.300;2022-08-19T06:46:22;96820.44;;;20.17;100.00
49947;BME280;35839;48.662;13.300;2022-08-19T06:48:48;96812.84;;;20.21;100.00
49947;BME280;35839;48.662;13.300;2022-08-19T06:51:16;96806.66;;;20.09;100.00
49947;BME280;35839;48.662;13.300;2022-08-19T06:53:44;96806.84;;;20.26;100.00
49947;BME280;35839;48.662;13.300;2022-08-19T06:56:12;96809.59;;;20.19;100.00
49947;BME280;35839;48.662;13.300;2022-08-19T06:58:38;96809.34;;;20.20;100.00
49947;BME280;35839;48.662;13.300;2022-08-19T07:01:04;96817.28;;;20.09;100.00
49947;BME280;35839;48.662;13.300;2022-08-19T07:03:31;96827.38;;;20.18;100.00
49947;BME280;35839;48.662;13.300;2022-08-19T07:06:02;96820.44;;;20.17;100.00
49947;BME280;35839;48.662;13.300;2022-08-19T07:08:27;96811.97;;;20.09;100.00
49947;BME280;35839;48.662;13.300;2022-08-19T07:10:53;96820.28;;;20.31;100.00
49947;BME280;35839;48.662;13.300;2022-08-19T07:13:18;96825.97;;;20.46;100.00
49947;BME280;35839;48.662;13.300;2022-08-19T07:15:44;96829.06;;;20.61;100.00
49947;BME280;35839;48.662;13.300;2022-08-19T07:18:11;96831.84;;;20.67;100.00
49947;BME280;35839;48.662;13.300;2022-08-19T07:20:36;96840.97;;;20.59;100.00
49947;BME280;35839;48.662;13.300;2022-08-19T07:23:04;96841.72;;;20.78;100.00
49947;BME280;35839;48.662;13.300;2022-08-19T07:25:29;96851.75;;;20.64;100.00
49947;BME280;35839;48.662;13.300;2022-08-19T07:27:54;96843.78;;;20.46;100.00
49947;BME280;35839;48.662;13.300;2022-08-19T07:30:20;96847.84;;;20.48;100.00
49947;BME280;35839;48.662;13.300;2022-08-19T07:32:47;96856.88;;;20.47;100.00
49947;BME280;35839;48.662;13.300;2022-08-19T07:35:13;96860.66;;;20.70;100.00
49947;BME280;35839;48.662;13.300;2022-08-19T07:37:38;96863.84;;;21.02;100.00
49947;BME280;35839;48.662;13.300;2022-08-19T07:40:09;96857.25;;;21.04;100.00
49947;BME280;35839;48.662;13.300;2022-08-19T07:42:35;96857.81;;;20.83;100.00
49947;BME280;35839;48.662;13.300;2022-08-19T07:45:00;96851.91;;;20.93;100.00
49947;BME280;35839;48.662;13.300;2022-08-19T07:47:25;96845.91;;;20.97;100.00
49947;BME280;35839;48.662;13.300;2022-08-19T07:49:53;96858.31;;;21.15;100.00
49947;BME280;35839;48.662;13.300;2022-08-19T07:52:18;96854.84;;;21.26;100.00
49947;BME280;35839;48.662;13.300;2022-08-19T07:54:45;96863.31;;;21.35;100.00
49947;BME280;35839;48.662;13.300;2022-08-19T07:57:10;96867.59;;;21.36;100.00
49947;BME280;35839;48.662;13.300;2022-08-19T07:59:36;96864.59;;;21.44;100.00
49947;BME280;35839;48.662;13.300;2022-08-19T08:02:02;96862.06;;;21.61;100.00
49947;BME280;35839;48.662;13.300;2022-08-19T08:04:29;96858.94;;;21.41;100.00
49947;BME280;35839;48.662;13.300;2022-08-19T08:07:14;96850.22;;;21.34;100.00
49947;BME280;35839;48.662;13.300;2022-08-19T08:09:58;96847.00;;;21.55;100.00
49947;BME280;35839;48.662;13.300;2022-08-19T08:12:28;96845.03;;;21.51;100.00
49947;BME280;35839;48.662;13.300;2022-08-19T08:14:58;96832.09;;;21.42;100.00
49947;BME280;35839;48.662;13.300;2022-08-19T08:17:28;96825.38;;;21.52;100.00
49947;BME280;35839;48.662;13.300;2022-08-19T08:19:54;96825.56;;;21.62;100.00
49947;BME280;35839;48.662;13.300;2022-08-19T08:22:21;96824.66;;;21.44;100.00
49947;BME280;35839;48.662;13.300;2022-08-19T08:25:09;96817.19;;;21.70;100.00
49947;BME280;35839;48.662;13.300;2022-08-19T08:27:39;96819.69;;;21.48;100.00
49947;BME280;35839;48.662;13.300;2022-08-19T08:30:14;96834.50;;;21.44;100.00
49947;BME280;35839;48.662;13.300;2022-08-19T08:32:40;96826.25;;;21.34;100.00
49947;BME280;35839;48.662;13.300;2022-08-19T08:35:08;96828.84;;;21.40;100.00
49947;BME280;35839;48.662;13.300;2022-08-19T08:37:34;96827.16;;;21.39;100.00
49947;BME280;35839;48.662;13.300;2022-08-19T08:40:20;96831.25;;;21.42;100.00
49947;BME280;35839;48.662;13.300;2022-08-19T08:45:53;96829.41;;;21.54;100.00
49947;BME280;35839;48.662;13.300;2022-08-19T08:48:25;96831.81;;;21.56;100.00
49947;BME280;35839;48.662;13.300;2022-08-19T08:50:57;96823.63;;;21.45;100.00
49947;BME280;35839;48.662;13.300;2022-08-19T08:53:24;96823.25;;;21.30;100.00
49947;BME280;35839;48.662;13.300;2022-08-19T08:55:50;96831.34;;;21.23;100.00
49947;BME280;35839;48.662;13.300;2022-08-19T08:58:21;96842.13;;;21.29;100.00
49947;BME280;35839;48.662;13.300;2022-08-19T09:00:51;96842.34;;;21.27;100.00
49947;BME280;35839;48.662;13.300;2022-08-19T09:03:20;96852.09;;;21.33;100.00
49947;BME280;35839;48.662;13.300;2022-08-19T09:06:00;96855.19;;;21.07;100.00
49947;BME280;35839;48.662;13.300;2022-08-19T09:11:15;96859.78;;;20.99;100.00
49947;BME280;35839;48.662;13.300;2022-08-19T09:16:21;96861.06;;;20.97;100.00
49947;BME280;35839;48.662;13.300;2022-08-19T09:18:54;96862.34;;;20.94;100.00
49947;BME280;35839;48.662;13.300;2022-08-19T09:21:21;96870.78;;;20.91;100.00
49947;BME280;35839;48.662;13.300;2022-08-19T09:23:51;96873.69;;;21.01;100.00
49947;BME280;35839;48.662;13.300;2022-08-19T09:26:18;96878.00;;;21.14;100.00
49947;BME280;35839;48.662;13.300;2022-08-19T09:28:46;96873.81;;;21.18;100.00
49947;BME280;35839;48.662;13.300;2022-08-19T09:31:19;96876.47;;;21.07;100.00
49947;BME280;35839;48.662;13.300;2022-08-19T09:33:46;96872.09;;;21.00;100.00
49947;BME280;35839;48.662;13.300;2022-08-19T09:36:17;96874.97;;;20.99;100.00
49947;BME280;35839;48.662;13.300;2022-08-19T09:38:44;96872.31;;;21.11;100.00
49947;BME280;35839;48.662;13.300;2022-08-19T09:41:13;96867.13;;;21.27;100.00
49947;BME280;35839;48.662;13.300;2022-08-19T09:43:40;96860.41;;;21.72;100.00
49947;BME280;35839;48.662;13.300;2022-08-19T09:46:07;96856.03;;;22.18;100.00
49947;BME280;35839;48.662;13.300;2022-08-19T09:48:35;96852.13;;;22.09;100.00
49947;BME280;35839;48.662;13.300;2022-08-19T09:51:03;96848.72;;;22.25;100.00
49947;BME280;35839;48.662;13.300;2022-08-19T09:53:29;96857.78;;;22.24;100.00
49947;BME280;35839;48.662;13.300;2022-08-19T09:55:55;96864.44;;;22.67;100.00
49947;BME280;35839;48.662;13.300;2022-08-19T09:58:20;96858.00;;;22.97;100.00
49947;BME280;35839;48.662;13.300;2022-08-19T10:00:47;96861.91;;;22.89;100.00
49947;BME280;35839;48.662;13.300;2022-08-19T10:03:13;96847.53;;;23.07;100.00
49947;BME280;35839;48.662;13.300;2022-08-19T10:05:38;96844.09;;;23.46;100.00
49947;BME280;35839;48.662;13.300;2022-08-19T10:08:17;96833.16;;;24.30;100.00
49947;BME280;35839;48.662;13.300;2022-08-19T10:10:44;96829.84;;;24.72;100.00
49947;BME280;35839;48.662;13.300;2022-08-19T10:13:10;96829.44;;;24.86;100.00
49947;BME280;35839;48.662;13.300;2022-08-19T10:15:36;96831.94;;;24.97;100.00
49947;BME280;35839;48.662;13.300;2022-08-19T10:18:05;96840.81;;;25.03;100.00
49947;BME280;35839;48.662;13.300;2022-08-19T10:20:30;96860.53;;;24.92;100.00
49947;BME280;35839;48.662;13.300;2022-08-19T10:22:56;96854.66;;;24.90;100.00
49947;BME280;35839;48.662;13.300;2022-08-19T10:25:21;96845.84;;;24.62;100.00
49947;BME280;35839;48.662;13.300;2022-08-19T10:27:47;96851.81;;;24.74;100.00
49947;BME280;35839;48.662;13.300;2022-08-19T10:30:13;96857.69;;;24.71;100.00
49947;BME280;35839;48.662;13.300;2022-08-19T10:32:38;96849.97;;;25.07;100.00
49947;BME280;35839;48.662;13.300;2022-08-19T10:35:04;96847.22;;;25.29;100.00
49947;BME280;35839;48.662;13.300;2022-08-19T10:37:35;96849.41;;;25.05;100.00
49947;BME280;35839;48.662;13.300;2022-08-19T10:40:03;96856.97;;;25.13;100.00
49947;BME280;35839;48.662;13.300;2022-08-19T10:42:29;96849.19;;;25.44;100.00
49947;BME280;35839;48.662;13.300;2022-08-19T10:44:56;96840.28;;;26.39;99.31
49947;BME280;35839;48.662;13.300;2022-08-19T10:47:21;96835.94;;;26.22;94.04
49947;BME280;35839;48.662;13.300;2022-08-19T10:49:48;96828.69;;;26.28;94.36
49947;BME280;35839;48.662;13.300;2022-08-19T10:52:32;96822.63;;;26.58;93.20
49947;BME280;35839;48.662;13.300;2022-08-19T10:55:02;96817.78;;;26.70;92.01
49947;BME280;35839;48.662;13.300;2022-08-19T10:57:46;96817.78;;;27.01;91.57
49947;BME280;35839;48.662;13.300;2022-08-19T11:00:12;96815.81;;;26.30;88.44
49947;BME280;35839;48.662;13.300;2022-08-19T11:02:38;96814.09;;;25.98;93.47
49947;BME280;35839;48.662;13.300;2022-08-19T11:05:04;96811.22;;;25.57;94.86
49947;BME280;35839;48.662;13.300;2022-08-19T11:07:32;96795.53;;;25.86;91.29
49947;BME280;35839;48.662;13.300;2022-08-19T11:09:58;96797.59;;;26.53;86.50
49947;BME280;35839;48.662;13.300;2022-08-19T11:12:23;96799.91;;;26.03;91.79
49947;BME280;35839;48.662;13.300;2022-08-19T11:14:49;96791.38;;;25.63;93.63
49947;BME280;35839;48.662;13.300;2022-08-19T11:17:15;96794.16;;;25.31;94.89
49947;BME280;35839;48.662;13.300;2022-08-19T11:19:40;96785.41;;;25.46;95.55
49947;BME280;35839;48.662;13.300;2022-08-19T11:22:08;96771.25;;;25.51;89.13
49947;BME280;35839;48.662;13.300;2022-08-19T11:24:35;96777.19;;;26.46;88.26
49947;BME280;35839;48.662;13.300;2022-08-19T11:27:04;96767.53;;;27.17;85.69
49947;BME280;35839;48.662;13.300;2022-08-19T11:29:31;96765.38;;;27.35;83.98
49947;BME280;35839;48.662;13.300;2022-08-19T11:32:00;96753.06;;;26.77;81.07
49947;BME280;35839;48.662;13.300;2022-08-19T11:34:28;96749.03;;;27.00;81.90
49947;BME280;35839;48.662;13.300;2022-08-19T11:36:55;96746.56;;;27.40;80.33
49947;BME280;35839;48.662;13.300;2022-08-19T11:39:24;96748.59;;;27.68;78.24
49947;BME280;35839;48.662;13.300;2022-08-19T11:41:51;96744.22;;;27.93;75.70
49947;BME280;35839;48.662;13.300;2022-08-19T11:44:16;96751.91;;;28.10;74.32
49947;BME280;35839;48.662;13.300;2022-08-19T11:46:43;96750.53;;;28.17;74.70
49947;BME280;35839;48.662;13.300;2022-08-19T11:49:15;96758.50;;;28.33;72.43
49947;BME280;35839;48.662;13.300;2022-08-19T11:51:41;96758.22;;;28.34;69.83
49947;BME280;35839;48.662;13.300;2022-08-19T11:54:08;96779.91;;;26.82;72.04
49947;BME280;35839;48.662;13.300;2022-08-19T11:56:36;96766.47;;;26.46;75.06
49947;BME280;35839;48.662;13.300;2022-08-19T11:59:02;96760.25;;;26.31;72.39
49947;BME280;35839;48.662;13.300;2022-08-19T12:01:28;96749.00;;;26.44;71.27
49947;BME280;35839;48.662;13.300;2022-08-19T12:03:54;96764.03;;;26.35;72.75
49947;BME280;35839;48.662;13.300;2022-08-19T12:06:22;96767.75;;;26.13;70.92
49947;BME280;35839;48.662;13.300;2022-08-19T12:08:51;96772.31;;;26.18;70.44
49947;BME280;35839;48.662;13.300;2022-08-19T12:11:17;96768.50;;;26.03;70.96
49947;BME280;35839;48.662;13.300;2022-08-19T12:13:42;96774.97;;;26.07;71.57
49947;BME280;35839;48.662;13.300;2022-08-19T12:16:15;96772.28;;;26.07;71.92
49947;BME280;35839;48.662;13.300;2022-08-19T12:18:42;96766.97;;;26.23;72.21
49947;BME280;35839;48.662;13.300;2022-08-19T12:21:12;96762.09;;;25.99;74.22
49947;BME280;35839;48.662;13.300;2022-08-19T12:23:42;96763.13;;;26.03;73.60
49947;BME280;35839;48.662;13.300;2022-08-19T12:26:10;96766.44;;;26.36;73.57
49947;BME280;35839;48.662;13.300;2022-08-19T12:28:36;96765.69;;;26.56;72.84
49947;BME280;35839;48.662;13.300;2022-08-19T12:31:02;96761.38;;;26.91;72.58
49947;BME280;35839;48.662;13.300;2022-08-19T12:33:27;96757.75;;;27.67;67.47
49947;BME280;35839;48.662;13.300;2022-08-19T12:35:54;96751.38;;;27.43;67.50
49947;BME280;35839;48.662;13.300;2022-08-19T12:38:20;96748.03;;;27.71;67.16
49947;BME280;35839;48.662;13.300;2022-08-19T12:40:49;96737.09;;;28.12;68.02
49947;BME280;35839;48.662;13.300;2022-08-19T12:43:16;96732.09;;;27.95;66.94
49947;BME280;35839;48.662;13.300;2022-08-19T12:45:42;96739.53;;;28.09;65.71
49947;BME280;35839;48.662;13.300;2022-08-19T12:48:08;96741.22;;;27.94;64.42
49947;BME280;35839;48.662;13.300;2022-08-19T12:50:33;96756.78;;;27.32;64.37
49947;BME280;35839;48.662;13.300;2022-08-19T12:52:59;96749.25;;;27.40;68.40
49947;BME280;35839;48.662;13.300;2022-08-19T12:55:24;96757.31;;;27.19;63.04
49947;BME280;35839;48.662;13.300;2022-08-19T12:57:50;96758.16;;;26.74;66.51
49947;BME280;35839;48.662;13.300;2022-08-19T13:00:18;96762.72;;;26.99;68.73
49947;BME280;35839;48.662;13.300;2022-08-19T13:02:47;96762.19;;;27.02;66.48
49947;BME280;35839;48.662;13.300;2022-08-19T13:05:16;96742.81;;;27.10;67.02
49947;BME280;35839;48.662;13.300;2022-08-19T13:07:45;96745.25;;;27.22;67.27
49947;BME280;35839;48.662;13.300;2022-08-19T13:10:12;96745.00;;;26.93;68.09
49947;BME280;35839;48.662;13.300;2022-08-19T13:12:40;96744.19;;;26.87;67.15
49947;BME280;35839;48.662;13.300;2022-08-19T13:15:06;96745.03;;;26.72;67.69
49947;BME280;35839;48.662;13.300;2022-08-19T13:17:34;96745.81;;;26.78;69.46
49947;BME280;35839;48.662;13.300;2022-08-19T13:19:59;96746.03;;;27.12;65.75
49947;BME280;35839;48.662;13.300;2022-08-19T13:22:25;96755.66;;;27.49;65.48
49947;BME280;35839;48.662;13.300;2022-08-19T13:24:50;96748.13;;;27.51;66.38
49947;BME280;35839;48.662;13.300;2022-08-19T13:27:16;96754.19;;;28.37;65.60
49947;BME280;35839;48.662;13.300;2022-08-19T13:29:41;96758.09;;;29.48;61.41
49947;BME280;35839;48.662;13.300;2022-08-19T13:32:25;96758.50;;;29.36;58.19
49947;BME280;35839;48.662;13.300;2022-08-19T13:35:09;96762.53;;;29.04;57.10
49947;BME280;35839;48.662;13.300;2022-08-19T13:37:35;96771.00;;;29.51;56.38
49947;BME280;35839;48.662;13.300;2022-08-19T13:40:22;96765.06;;;29.97;57.31
49947;BME280;35839;48.662;13.300;2022-08-19T13:42:51;96761.69;;;30.48;51.06
49947;BME280;35839;48.662;13.300;2022-08-19T13:45:19;96767.41;;;30.98;53.20
49947;BME280;35839;48.662;13.300;2022-08-19T13:47:46;96755.53;;;31.27;49.90
49947;BME280;35839;48.662;13.300;2022-08-19T13:50:15;96747.13;;;31.28;49.00
49947;BME280;35839;48.662;13.300;2022-08-19T13:52:42;96753.94;;;31.81;51.49
49947;BME280;35839;48.662;13.300;2022-08-19T13:55:09;96757.16;;;31.83;47.71
49947;BME280;35839;48.662;13.300;2022-08-19T13:57:35;96748.25;;;31.41;48.92
49947;BME280;35839;48.662;13.300;2022-08-19T14:00:03;96734.31;;;31.76;46.67
49947;BME280;35839;48.662;13.300;2022-08-19T14:02:28;96728.25;;;32.65;48.30
49947;BME280;35839;48.662;13.300;2022-08-19T14:04:54;96723.25;;;31.86;42.90
49947;BME280;35839;48.662;13.300;2022-08-19T14:07:19;96730.94;;;30.77;44.29
49947;BME280;35839;48.662;13.300;2022-08-19T14:09:45;96715.13;;;32.59;44.54
49947;BME280;35839;48.662;13.300;2022-08-19T14:12:10;96719.13;;;33.06;43.55
49947;BME280;35839;48.662;13.300;2022-08-19T14:14:37;96710.13;;;31.79;42.93
49947;BME280;35839;48.662;13.300;2022-08-19T14:17:06;96708.44;;;32.56;43.57
49947;BME280;35839;48.662;13.300;2022-08-19T14:19:31;96708.91;;;32.36;48.94
49947;BME280;35839;48.662;13.300;2022-08-19T14:21:57;96694.59;;;32.21;43.54
49947;BME280;35839;48.662;13.300;2022-08-19T14:24:22;96702.34;;;30.76;49.07
49947;BME280;35839;48.662;13.300;2022-08-19T14:26:47;96702.59;;;32.94;49.41
49947;BME280;35839;48.662;13.300;2022-08-19T14:29:13;96698.91;;;32.45;45.35
49947;BME280;35839;48.662;13.300;2022-08-19T14:31:39;96696.53;;;31.29;50.32
49947;BME280;35839;48.662;13.300;2022-08-19T14:34:06;96692.00;;;32.84;46.14
49947;BME280;35839;48.662;13.300;2022-08-19T14:36:31;96695.81;;;33.05;43.85
49947;BME280;35839;48.662;13.300;2022-08-19T14:38:59;96696.19;;;31.86;47.23
49947;BME280;35839;48.662;13.300;2022-08-19T14:41:26;96697.59;;;32.33;42.74
49947;BME280;35839;48.662;13.300;2022-08-19T14:43:53;96693.50;;;32.22;43.70
49947;BME280;35839;48.662;13.300;2022-08-19T14:46:21;96693.41;;;33.44;44.98
49947;BME280;35839;48.662;13.300;2022-08-19T14:48:48;96700.50;;;31.87;46.65
49947;BME280;35839;48.662;13.300;2022-08-19T14:51:14;96708.59;;;30.90;48.58
49947;BME280;35839;48.662;13.300;2022-08-19T14:53:40;96718.72;;;30.65;50.29
49947;BME280;35839;48.662;13.300;2022-08-19T14:56:11;96716.03;;;30.65;49.69
49947;BME280;35839;48.662;13.300;2022-08-19T14:58:38;96715.47;;;30.12;52.00
49947;BME280;35839;48.662;13.300;2022-08-19T15:01:03;96710.50;;;29.81;52.27
49947;BME280;35839;48.662;13.300;2022-08-19T15:03:30;96709.84;;;30.08;53.34
49947;BME280;35839;48.662;13.300;2022-08-19T15:05:57;96711.47;;;28.60;58.57
49947;BME280;35839;48.662;13.300;2022-08-19T15:08:23;96721.75;;;28.13;58.99
49947;BME280;35839;48.662;13.300;2022-08-19T15:10:50;96705.94;;;28.01;61.44
49947;BME280;35839;48.662;13.300;2022-08-19T15:13:16;96707.28;;;27.49;64.96
49947;BME280;35839;48.662;13.300;2022-08-19T15:15:41;96711.97;;;28.27;63.06
49947;BME280;35839;48.662;13.300;2022-08-19T15:18:07;96712.66;;;29.07;60.30
49947;BME280;35839;48.662;13.300;2022-08-19T15:20:33;96708.00;;;28.59;61.41
49947;BME280;35839;48.662;13.300;2022-08-19T15:22:59;96718.91;;;28.73;60.54
49947;BME280;35839;48.662;13.300;2022-08-19T15:25:25;96698.13;;;28.39;63.15
49947;BME280;35839;48.662;13.300;2022-08-19T15:27:52;96700.28;;;29.06;62.46
49947;BME280;35839;48.662;13.300;2022-08-19T15:30:23;96694.31;;;29.14;58.50
49947;BME280;35839;48.662;13.300;2022-08-19T15:32:49;96684.41;;;28.75;59.83
49947;BME280;35839;48.662;13.300;2022-08-19T15:35:15;96684.25;;;27.82;62.89
49947;BME280;35839;48.662;13.300;2022-08-19T15:37:42;96682.53;;;28.46;61.82
49947;BME280;35839;48.662;13.300;2022-08-19T15:40:08;96678.53;;;29.26;60.09
49947;BME280;35839;48.662;13.300;2022-08-19T15:42:38;96678.13;;;30.38;57.10
49947;BME280;35839;48.662;13.300;2022-08-19T15:45:08;96685.66;;;30.55;54.06
49947;BME280;35839;48.662;13.300;2022-08-19T15:47:35;96688.78;;;30.10;57.00
49947;BME280;35839;48.662;13.300;2022-08-19T15:50:08;96682.63;;;32.00;51.78
49947;BME280;35839;48.662;13.300;2022-08-19T15:52:34;96691.13;;;31.29;50.38
49947;BME280;35839;48.662;13.300;2022-08-19T15:54:59;96701.03;;;30.40;53.18
49947;BME280;35839;48.662;13.300;2022-08-19T15:57:26;96706.84;;;32.55;51.51
49947;BME280;35839;48.662;13.300;2022-08-19T15:59:51;96702.78;;;31.93;47.17
49947;BME280;35839;48.662;13.300;2022-08-19T16:02:35;96707.78;;;33.04;46.58
49947;BME280;35839;48.662;13.300;2022-08-19T16:05:24;96701.81;;;33.82;44.06
49947;BME280;35839;48.662;13.300;2022-08-19T16:08:09;96709.38;;;33.05;44.41
49947;BME280;35839;48.662;13.300;2022-08-19T16:10:36;96703.84;;;31.15;48.64
49947;BME280;35839;48.662;13.300;2022-08-19T16:13:03;96704.81;;;31.19;49.72
49947;BME280;35839;48.662;13.300;2022-08-19T16:15:30;96703.66;;;31.66;48.81
49947;BME280;35839;48.662;13.300;2022-08-19T16:17:58;96711.69;;;32.89;47.74
49947;BME280;35839;48.662;13.300;2022-08-19T16:20:26;96721.41;;;33.22;44.34
49947;BME280;35839;48.662;13.300;2022-08-19T16:22:51;96730.25;;;32.73;46.54
49947;BME280;35839;48.662;13.300;2022-08-19T16:25:17;96734.19;;;29.60;56.53
49947;BME280;35839;48.662;13.300;2022-08-19T16:27:42;96725.28;;;29.40;57.62
49947;BME280;35839;48.662;13.300;2022-08-19T16:30:08;96733.38;;;28.03;62.79
49947;BME280;35839;48.662;13.300;2022-08-19T16:32:34;96723.09;;;27.56;66.79
49947;BME280;35839;48.662;13.300;2022-08-19T16:35:03;96725.94;;;26.89;70.78
49947;BME280;35839;48.662;13.300;2022-08-19T16:37:29;96727.31;;;26.76;70.23
49947;BME280;35839;48.662;13.300;2022-08-19T16:39:55;96735.84;;;26.37;72.80
49947;BME280;35839;48.662;13.300;2022-08-19T16:42:21;96742.84;;;26.48;71.87
49947;BME280;35839;48.662;13.300;2022-08-19T16:44:46;96751.34;;;25.99;75.28
49947;BME280;35839;48.662;13.300;2022-08-19T16:47:13;96750.53;;;25.99;75.33
49947;BME280;35839;48.662;13.300;2022-08-19T16:49:40;96753.38;;;25.77;75.91
49947;BME280;35839;48.662;13.300;2022-08-19T16:52:06;96755.97;;;25.51;78.61
49947;BME280;35839;48.662;13.300;2022-08-19T16:54:35;96759.03;;;25.22;81.78
49947;BME280;35839;48.662;13.300;2022-08-19T16:57:01;96765.53;;;25.37;80.80
49947;BME280;35839;48.662;13.300;2022-08-19T16:59:26;96765.75;;;25.25;81.05
49947;BME280;35839;48.662;13.300;2022-08-19T17:01:52;96762.84;;;25.90;77.76
49947;BME280;35839;48.662;13.300;2022-08-19T17:04:17;96768.19;;;25.32;82.09
49947;BME280;35839;48.662;13.300;2022-08-19T17:06:43;96764.78;;;25.47;81.16
49947;BME280;35839;48.662;13.300;2022-08-19T17:09:08;96764.28;;;24.75;88.31
49947;BME280;35839;48.662;13.300;2022-08-19T17:11:34;96771.81;;;24.78;87.55
49947;BME280;35839;48.662;13.300;2022-08-19T17:14:03;96771.84;;;24.83;86.54
49947;BME280;35839;48.662;13.300;2022-08-19T17:16:34;96774.75;;;25.14;83.66
49947;BME280;35839;48.662;13.300;2022-08-19T17:19:02;96772.78;;;24.99;82.65
49947;BME280;35839;48.662;13.300;2022-08-19T17:21:31;96781.13;;;25.08;80.33
49947;BME280;35839;48.662;13.300;2022-08-19T17:24:02;96791.91;;;24.80;81.74
49947;BME280;35839;48.662;13.300;2022-08-19T17:26:28;96781.91;;;24.16;85.46
49947;BME280;35839;48.662;13.300;2022-08-19T17:28:55;96793.69;;;23.93;86.10
49947;BME280;35839;48.662;13.300;2022-08-19T17:31:23;96786.13;;;23.85;86.15
49947;BME280;35839;48.662;13.300;2022-08-19T17:33:50;96782.03;;;23.61;86.85
49947;BME280;35839;48.662;13.300;2022-08-19T17:36:16;96798.50;;;23.52;87.99
49947;BME280;35839;48.662;13.300;2022-08-19T17:38:42;96795.88;;;23.74;86.21
49947;BME280;35839;48.662;13.300;2022-08-19T17:41:08;96807.94;;;23.77;85.10
49947;BME280;35839;48.662;13.300;2022-08-19T17:43:34;96807.28;;;23.70;85.30
49947;BME280;35839;48.662;13.300;2022-08-19T17:46:01;96810.44;;;23.67;85.76
49947;BME280;35839;48.662;13.300;2022-08-19T17:48:31;96817.88;;;23.43;87.39
49947;BME280;35839;48.662;13.300;2022-08-19T17:51:16;96804.25;;;23.44;89.45
49947;BME280;35839;48.662;13.300;2022-08-19T17:53:42;96814.19;;;23.10;92.59
49947;BME280;35839;48.662;13.300;2022-08-19T17:56:07;96816.97;;;22.86;94.97
49947;BME280;35839;48.662;13.300;2022-08-19T17:58:34;96825.47;;;22.66;98.80
49947;BME280;35839;48.662;13.300;2022-08-19T18:01:00;96826.84;;;22.86;97.79